LOWL Airport Information

Runway Information
Runway 09 Length 9843 ft width 197 ft
Elevation 978 ft Threshold 821 ft Heading 87
Runway 27 Length 9843 ft Width 197 ft
Elevation 963 ft Threshold 493 ft Heading 267
Runway 09L Length 2165 ft width 148 ft
Elevation 971 ft Threshold 0 ft Heading 87
Runway 27R Length 2165 ft Width 148 ft
Elevation 968 ft Threshold 0 ft Heading 267
Airport Frequencies
Type APP Name RADAR Frequency 129.625 MHZ
Type ATIS Name ATIS Frequency 128.125 MHZ
Type TWR Name TWR Frequency 118.8 MHZ
Airport Navaids
Airport Weather Information & NOTAM
ADDS - METARS form results

(0941 UTC 23 July 2018)
 
METAR text: LOWL 230920Z 27009KT 230V290 9999 FEW028 BKN300 23/16 Q1016 NOSIG
Conditions at: LOWL (LINZ (CIV/MIL) , AT) observed 0920 UTC 23 July 2018
Temperature: 23.0°C (73°F)
Dewpoint: 16.0°C (61°F) [RH = 65%]
Pressure (altimeter): 30.00 inches Hg (1016.0 mb)
Winds: from the W (270 degrees) at 10 MPH (9 knots; 4.7 m/s)
Visibility: 6 or more miles (10+ km)
Ceiling: 30000 feet AGL
Clouds: few clouds at 2800 feet AGL
broken clouds at 30000 feet AGL
Weather: no significant weather observed at this time

METAR text: LOWL 230850Z 28007KT 250V320 9999 FEW026 BKN300 23/15 Q1016 NOSIG
Conditions at: LOWL (LINZ (CIV/MIL) , AT) observed 0850 UTC 23 July 2018
Temperature: 23.0°C (73°F)
Dewpoint: 15.0°C (59°F) [RH = 61%]
Pressure (altimeter): 30.00 inches Hg (1016.0 mb)
Winds: from the W (280 degrees) at 8 MPH (7 knots; 3.6 m/s)
Visibility: 6 or more miles (10+ km)
Ceiling: 30000 feet AGL
Clouds: few clouds at 2600 feet AGL
broken clouds at 30000 feet AGL
Weather: no significant weather observed at this time